Terminal Aerodrome Forecast
Issued by NWS Northern Indiana

Home | Current Version | Previous Version | Text Only | Print | Product List | Glossary On
Versions: 1 2 3 4 5 6 7 8 9 10 11 12
000
FTUS43 KIWX 210500
TAFFWA
TAF
KFWA 210522Z 2106/2206 VRB03KT P6SM SCT250
     FM211200 22008KT P6SM BKN200
     FM212000 24013G19KT P6SM BKN060
     FM220300 24010KT 6SM -SHRA BKN035=

USA.gov is the U.S. government's official web portal to all federal, state and local government web resources and services.